Terminal Aerodrome Forecast
Issued by NWS

Home | Current Version | Previous Version | Text Only | Print | Product List | Glossary Off
Versions: 1 2 3 4 5 6 7 8 9 10 11 12 13

000
FTUS43 KIWX 202333
TAFSBN
TAF
KSBN 202333Z 2100/2124 17008KT P6SM SKC
     FM211000 18004KT 5SM BR FEW050 BKN200
     FM211500 17008KT P6SM FEW050=

USA.gov is the U.S. government's official web portal to all federal, state and local government web resources and services.